Garrison, New York
Current Conditions -  °F | °C
As of 9:45 PM on Tuesday 25 Nov 2014 (Local Time) from KSWF Reporting Station
Clear Clear  
Wind Chill: 43°   Ceiling: Unl
Heat Index: 43°   Visibility: 10mi
Dew Point: 30°   Wind: 0mph
Humidity: 61%   Direction: NA
Pressure: 30.1"   Gusts: NA
Location:  41.38°N, 73.95°W
Report Text: KSWF 260245Z 00000KT 10SM SKC 06/M01 A3010
Loading
Personal Weather Stations






























Interactive Weather Map New forecast layout! Learn more

10-Day Weather Forecast

Advertisements
Track Severe Weather on mobile